sensor_id;sensor_type;location;lat;lon;timestamp;temperature;humidity
9393;DHT22;4736;52.508;13.422;2022-12-19T00:00:05;-4.10;1.00
9393;DHT22;4736;52.508;13.422;2022-12-19T00:03:15;-4.10;1.00
9393;DHT22;4736;52.508;13.422;2022-12-19T00:06:19;-3.90;1.00
9393;DHT22;4736;52.508;13.422;2022-12-19T00:09:22;-4.00;1.00
9393;DHT22;4736;52.508;13.422;2022-12-19T00:12:26;-4.10;1.00
9393;DHT22;4736;52.508;13.422;2022-12-19T00:15:31;-4.00;1.00
9393;DHT22;4736;52.508;13.422;2022-12-19T00:18:34;-3.90;1.00
9393;DHT22;4736;52.508;13.422;2022-12-19T00:21:38;-3.90;1.00
9393;DHT22;4736;52.508;13.422;2022-12-19T00:24:41;-3.90;1.00
9393;DHT22;4736;52.508;13.422;2022-12-19T00:27:45;-3.90;1.00
9393;DHT22;4736;52.508;13.422;2022-12-19T00:30:48;-3.90;1.00
9393;DHT22;4736;52.508;13.422;2022-12-19T00:33:55;-3.90;1.00
9393;DHT22;4736;52.508;13.422;2022-12-19T00:36:58;-3.80;1.00
9393;DHT22;4736;52.508;13.422;2022-12-19T00:40:01;-3.70;1.00
9393;DHT22;4736;52.508;13.422;2022-12-19T00:43:06;-3.90;1.00
9393;DHT22;4736;52.508;13.422;2022-12-19T00:46:10;-3.80;1.00
9393;DHT22;4736;52.508;13.422;2022-12-19T00:49:13;-3.70;1.00
9393;DHT22;4736;52.508;13.422;2022-12-19T00:52:16;-3.70;1.00
9393;DHT22;4736;52.508;13.422;2022-12-19T00:55:19;-3.80;1.00
9393;DHT22;4736;52.508;13.422;2022-12-19T00:58:24;-3.70;1.00
9393;DHT22;4736;52.508;13.422;2022-12-19T01:01:29;-3.80;1.00
9393;DHT22;4736;52.508;13.422;2022-12-19T01:04:34;-3.70;1.00
9393;DHT22;4736;52.508;13.422;2022-12-19T01:07:42;-3.70;1.00
9393;DHT22;4736;52.508;13.422;2022-12-19T01:10:45;-3.60;1.00
9393;DHT22;4736;52.508;13.422;2022-12-19T01:13:50;-3.80;1.00
9393;DHT22;4736;52.508;13.422;2022-12-19T01:16:52;-3.70;1.00
9393;DHT22;4736;52.508;13.422;2022-12-19T01:19:55;-3.70;1.00
9393;DHT22;4736;52.508;13.422;2022-12-19T01:22:58;-3.50;1.00
9393;DHT22;4736;52.508;13.422;2022-12-19T01:26:01;-3.70;1.00
9393;DHT22;4736;52.508;13.422;2022-12-19T01:29:06;-3.60;1.00
9393;DHT22;4736;52.508;13.422;2022-12-19T01:32:09;-3.70;1.00
9393;DHT22;4736;52.508;13.422;2022-12-19T01:35:12;-3.90;1.00
9393;DHT22;4736;52.508;13.422;2022-12-19T01:38:22;-3.60;1.00
9393;DHT22;4736;52.508;13.422;2022-12-19T01:41:25;-3.60;1.00
9393;DHT22;4736;52.508;13.422;2022-12-19T01:44:30;-3.70;1.00
9393;DHT22;4736;52.508;13.422;2022-12-19T01:47:35;-3.60;1.00
9393;DHT22;4736;52.508;13.422;2022-12-19T01:50:50;-3.50;1.00
9393;DHT22;4736;52.508;13.422;2022-12-19T01:54:05;-3.50;1.00
9393;DHT22;4736;52.508;13.422;2022-12-19T01:57:11;-3.40;1.00
9393;DHT22;4736;52.508;13.422;2022-12-19T02:00:17;-3.60;1.00
9393;DHT22;4736;52.508;13.422;2022-12-19T02:03:27;-3.60;1.00
9393;DHT22;4736;52.508;13.422;2022-12-19T02:06:30;-3.70;1.00
9393;DHT22;4736;52.508;13.422;2022-12-19T02:09:36;-3.80;1.00
9393;DHT22;4736;52.508;13.422;2022-12-19T02:12:41;-3.50;1.00
9393;DHT22;4736;52.508;13.422;2022-12-19T02:15:53;-3.30;1.00
9393;DHT22;4736;52.508;13.422;2022-12-19T02:19:04;-3.50;1.00
9393;DHT22;4736;52.508;13.422;2022-12-19T02:22:17;-3.40;1.00
9393;DHT22;4736;52.508;13.422;2022-12-19T02:25:51;-3.50;1.00
9393;DHT22;4736;52.508;13.422;2022-12-19T02:29:19;-3.50;1.00
9393;DHT22;4736;52.508;13.422;2022-12-19T02:32:31;-3.40;1.00
9393;DHT22;4736;52.508;13.422;2022-12-19T02:35:41;-3.20;1.00
9393;DHT22;4736;52.508;13.422;2022-12-19T02:38:51;-3.50;1.00
9393;DHT22;4736;52.508;13.422;2022-12-19T02:41:57;-3.60;1.00
9393;DHT22;4736;52.508;13.422;2022-12-19T02:45:02;-3.50;1.00
9393;DHT22;4736;52.508;13.422;2022-12-19T02:48:08;-3.50;1.00
9393;DHT22;4736;52.508;13.422;2022-12-19T02:51:16;-3.60;1.00
9393;DHT22;4736;52.508;13.422;2022-12-19T02:54:20;-3.50;1.00
9393;DHT22;4736;52.508;13.422;2022-12-19T02:57:27;-3.50;1.00
9393;DHT22;4736;52.508;13.422;2022-12-19T03:00:36;-3.60;1.00
9393;DHT22;4736;52.508;13.422;2022-12-19T03:03:51;-3.40;1.00
9393;DHT22;4736;52.508;13.422;2022-12-19T03:07:01;-3.50;1.00
9393;DHT22;4736;52.508;13.422;2022-12-19T03:10:11;-3.30;1.00
9393;DHT22;4736;52.508;13.422;2022-12-19T03:13:24;-3.50;1.00
9393;DHT22;4736;52.508;13.422;2022-12-19T03:16:27;-3.60;1.00
9393;DHT22;4736;52.508;13.422;2022-12-19T03:19:32;-3.50;1.00
9393;DHT22;4736;52.508;13.422;2022-12-19T03:22:35;-3.30;1.00
9393;DHT22;4736;52.508;13.422;2022-12-19T03:25:40;-3.50;1.00
9393;DHT22;4736;52.508;13.422;2022-12-19T03:28:48;-3.50;1.00
9393;DHT22;4736;52.508;13.422;2022-12-19T03:31:52;-3.20;1.00
9393;DHT22;4736;52.508;13.422;2022-12-19T03:35:03;-3.40;1.00
9393;DHT22;4736;52.508;13.422;2022-12-19T03:38:07;-3.40;1.00
9393;DHT22;4736;52.508;13.422;2022-12-19T03:41:13;-3.20;1.00
9393;DHT22;4736;52.508;13.422;2022-12-19T03:44:19;-3.50;1.00
9393;DHT22;4736;52.508;13.422;2022-12-19T03:47:27;-3.40;1.00
9393;DHT22;4736;52.508;13.422;2022-12-19T03:50:46;-3.50;1.00
9393;DHT22;4736;52.508;13.422;2022-12-19T03:53:57;-3.40;1.00
9393;DHT22;4736;52.508;13.422;2022-12-19T03:57:05;-3.30;1.00
9393;DHT22;4736;52.508;13.422;2022-12-19T04:00:11;-3.20;1.00
9393;DHT22;4736;52.508;13.422;2022-12-19T04:03:16;-3.30;1.00
9393;DHT22;4736;52.508;13.422;2022-12-19T04:06:21;-3.30;1.00
9393;DHT22;4736;52.508;13.422;2022-12-19T04:09:25;-3.00;1.00
9393;DHT22;4736;52.508;13.422;2022-12-19T04:12:33;-3.30;1.00
9393;DHT22;4736;52.508;13.422;2022-12-19T04:15:41;-3.00;1.00
9393;DHT22;4736;52.508;13.422;2022-12-19T04:18:50;-3.00;1.00
9393;DHT22;4736;52.508;13.422;2022-12-19T04:22:03;-3.30;1.00
9393;DHT22;4736;52.508;13.422;2022-12-19T04:25:11;-3.30;1.00
9393;DHT22;4736;52.508;13.422;2022-12-19T04:28:19;-3.20;1.00
9393;DHT22;4736;52.508;13.422;2022-12-19T04:31:23;-3.00;1.00
9393;DHT22;4736;52.508;13.422;2022-12-19T04:34:26;-2.90;1.00
9393;DHT22;4736;52.508;13.422;2022-12-19T04:37:30;-3.00;1.00
9393;DHT22;4736;52.508;13.422;2022-12-19T04:40:34;-3.30;1.00
9393;DHT22;4736;52.508;13.422;2022-12-19T04:43:42;-3.30;1.00
9393;DHT22;4736;52.508;13.422;2022-12-19T04:46:45;-3.20;1.00
9393;DHT22;4736;52.508;13.422;2022-12-19T04:49:48;-3.20;1.00
9393;DHT22;4736;52.508;13.422;2022-12-19T04:52:52;-3.10;1.00
9393;DHT22;4736;52.508;13.422;2022-12-19T04:56:01;-3.20;1.00
9393;DHT22;4736;52.508;13.422;2022-12-19T04:59:04;-3.00;1.00
9393;DHT22;4736;52.508;13.422;2022-12-19T05:02:07;-2.80;1.00
9393;DHT22;4736;52.508;13.422;2022-12-19T05:05:10;-2.80;1.00
9393;DHT22;4736;52.508;13.422;2022-12-19T05:08:14;-2.90;1.00
9393;DHT22;4736;52.508;13.422;2022-12-19T05:11:17;-2.80;1.00
9393;DHT22;4736;52.508;13.422;2022-12-19T05:14:21;-3.20;1.00
9393;DHT22;4736;52.508;13.422;2022-12-19T05:17:24;-3.20;1.00
9393;DHT22;4736;52.508;13.422;2022-12-19T05:20:26;-3.10;1.00
9393;DHT22;4736;52.508;13.422;2022-12-19T05:23:31;-2.90;1.00
9393;DHT22;4736;52.508;13.422;2022-12-19T05:26:34;-3.20;1.00
9393;DHT22;4736;52.508;13.422;2022-12-19T05:29:38;-3.10;1.00
9393;DHT22;4736;52.508;13.422;2022-12-19T05:32:41;-3.20;1.00
9393;DHT22;4736;52.508;13.422;2022-12-19T05:35:44;-3.10;1.00
9393;DHT22;4736;52.508;13.422;2022-12-19T05:38:48;-3.20;1.00
9393;DHT22;4736;52.508;13.422;2022-12-19T05:41:51;-2.80;1.00
9393;DHT22;4736;52.508;13.422;2022-12-19T05:44:54;-3.30;1.00
9393;DHT22;4736;52.508;13.422;2022-12-19T05:47:58;-3.00;1.00
9393;DHT22;4736;52.508;13.422;2022-12-19T05:51:02;-2.70;1.00
9393;DHT22;4736;52.508;13.422;2022-12-19T05:54:07;-2.80;1.00
9393;DHT22;4736;52.508;13.422;2022-12-19T05:57:10;-2.80;1.00
9393;DHT22;4736;52.508;13.422;2022-12-19T06:00:13;-3.10;1.00
9393;DHT22;4736;52.508;13.422;2022-12-19T06:03:17;-2.80;1.00
9393;DHT22;4736;52.508;13.422;2022-12-19T06:06:24;-3.10;1.00
9393;DHT22;4736;52.508;13.422;2022-12-19T06:09:29;-2.70;1.00
9393;DHT22;4736;52.508;13.422;2022-12-19T06:12:32;-2.80;1.00
9393;DHT22;4736;52.508;13.422;2022-12-19T06:15:35;-2.70;1.00
9393;DHT22;4736;52.508;13.422;2022-12-19T06:18:38;-2.80;1.00
9393;DHT22;4736;52.508;13.422;2022-12-19T06:21:45;-2.90;1.00
9393;DHT22;4736;52.508;13.422;2022-12-19T06:24:50;-2.70;1.00
9393;DHT22;4736;52.508;13.422;2022-12-19T06:27:53;-2.80;1.00
9393;DHT22;4736;52.508;13.422;2022-12-19T06:30:57;-2.70;1.00
9393;DHT22;4736;52.508;13.422;2022-12-19T06:34:00;-2.70;1.00
9393;DHT22;4736;52.508;13.422;2022-12-19T06:37:03;-2.90;1.00
9393;DHT22;4736;52.508;13.422;2022-12-19T06:40:11;-2.70;1.00
9393;DHT22;4736;52.508;13.422;2022-12-19T06:43:34;-2.50;1.00
9393;DHT22;4736;52.508;13.422;2022-12-19T06:46:36;-2.50;1.00
9393;DHT22;4736;52.508;13.422;2022-12-19T06:49:39;-2.60;1.00
9393;DHT22;4736;52.508;13.422;2022-12-19T06:52:42;-2.60;1.00
9393;DHT22;4736;52.508;13.422;2022-12-19T06:55:48;-2.40;1.00
9393;DHT22;4736;52.508;13.422;2022-12-19T06:58:52;-2.60;1.00
9393;DHT22;4736;52.508;13.422;2022-12-19T07:01:57;-2.30;1.00
9393;DHT22;4736;52.508;13.422;2022-12-19T07:05:06;-2.20;1.00
9393;DHT22;4736;52.508;13.422;2022-12-19T07:08:09;-2.40;1.00
9393;DHT22;4736;52.508;13.422;2022-12-19T07:11:14;-2.40;1.00
9393;DHT22;4736;52.508;13.422;2022-12-19T07:14:17;-2.50;1.00
9393;DHT22;4736;52.508;13.422;2022-12-19T07:17:21;-2.30;1.00
9393;DHT22;4736;52.508;13.422;2022-12-19T07:20:27;-2.30;1.00
9393;DHT22;4736;52.508;13.422;2022-12-19T07:23:31;-2.30;1.00
9393;DHT22;4736;52.508;13.422;2022-12-19T07:26:35;-2.10;1.00
9393;DHT22;4736;52.508;13.422;2022-12-19T07:29:38;-2.20;1.00
9393;DHT22;4736;52.508;13.422;2022-12-19T07:32:41;-2.20;1.00
9393;DHT22;4736;52.508;13.422;2022-12-19T07:35:44;-1.90;1.00
9393;DHT22;4736;52.508;13.422;2022-12-19T07:38:47;-2.20;1.00
9393;DHT22;4736;52.508;13.422;2022-12-19T07:41:52;-1.80;1.00
9393;DHT22;4736;52.508;13.422;2022-12-19T07:44:55;-1.90;1.00
9393;DHT22;4736;52.508;13.422;2022-12-19T07:47:59;-1.90;1.00
9393;DHT22;4736;52.508;13.422;2022-12-19T07:51:02;-1.80;1.00
9393;DHT22;4736;52.508;13.422;2022-12-19T07:54:06;-1.90;1.00
9393;DHT22;4736;52.508;13.422;2022-12-19T07:57:10;-1.80;1.00
9393;DHT22;4736;52.508;13.422;2022-12-19T08:00:13;-1.60;1.00
9393;DHT22;4736;52.508;13.422;2022-12-19T08:03:17;-1.60;1.00
9393;DHT22;4736;52.508;13.422;2022-12-19T08:06:20;-1.60;1.00
9393;DHT22;4736;52.508;13.422;2022-12-19T08:09:24;-1.70;1.00
9393;DHT22;4736;52.508;13.422;2022-12-19T08:12:31;-1.60;1.00
9393;DHT22;4736;52.508;13.422;2022-12-19T08:15:34;-1.50;1.00
9393;DHT22;4736;52.508;13.422;2022-12-19T08:18:37;-1.40;1.00
9393;DHT22;4736;52.508;13.422;2022-12-19T08:21:41;-1.50;1.00
9393;DHT22;4736;52.508;13.422;2022-12-19T08:24:43;-1.20;1.00
9393;DHT22;4736;52.508;13.422;2022-12-19T08:27:48;-1.50;1.00
9393;DHT22;4736;52.508;13.422;2022-12-19T08:30:51;-1.30;1.00
9393;DHT22;4736;52.508;13.422;2022-12-19T08:33:55;-1.10;1.00
9393;DHT22;4736;52.508;13.422;2022-12-19T08:36:58;-1.30;1.00
9393;DHT22;4736;52.508;13.422;2022-12-19T08:40:01;-1.40;1.00
9393;DHT22;4736;52.508;13.422;2022-12-19T08:43:06;-1.00;1.00
9393;DHT22;4736;52.508;13.422;2022-12-19T08:46:09;-0.90;1.00
9393;DHT22;4736;52.508;13.422;2022-12-19T08:49:12;-0.90;1.00
9393;DHT22;4736;52.508;13.422;2022-12-19T08:52:16;-1.00;1.00
9393;DHT22;4736;52.508;13.422;2022-12-19T08:55:19;-0.80;1.00
9393;DHT22;4736;52.508;13.422;2022-12-19T08:58:24;-0.80;1.00
9393;DHT22;4736;52.508;13.422;2022-12-19T09:01:27;-0.90;1.00
9393;DHT22;4736;52.508;13.422;2022-12-19T09:04:30;-0.90;1.00
9393;DHT22;4736;52.508;13.422;2022-12-19T09:07:54;-0.70;1.00
9393;DHT22;4736;52.508;13.422;2022-12-19T09:10:57;-0.70;1.00
9393;DHT22;4736;52.508;13.422;2022-12-19T09:14:02;-0.60;1.00
9393;DHT22;4736;52.508;13.422;2022-12-19T09:17:06;-0.60;1.00
9393;DHT22;4736;52.508;13.422;2022-12-19T09:20:10;-0.60;1.00
9393;DHT22;4736;52.508;13.422;2022-12-19T09:23:18;-0.30;1.00
9393;DHT22;4736;52.508;13.422;2022-12-19T09:26:23;-0.20;1.00
9393;DHT22;4736;52.508;13.422;2022-12-19T09:29:29;-0.30;1.00
9393;DHT22;4736;52.508;13.422;2022-12-19T09:32:36;-0.40;1.00
9393;DHT22;4736;52.508;13.422;2022-12-19T09:35:48;-0.10;1.00
9393;DHT22;4736;52.508;13.422;2022-12-19T09:38:53;0.10;1.00
9393;DHT22;4736;52.508;13.422;2022-12-19T09:42:09;0.00;1.00
9393;DHT22;4736;52.508;13.422;2022-12-19T09:45:27;0.00;1.00
9393;DHT22;4736;52.508;13.422;2022-12-19T09:48:34;0.00;1.00
9393;DHT22;4736;52.508;13.422;2022-12-19T09:51:41;0.00;1.00
9393;DHT22;4736;52.508;13.422;2022-12-19T09:54:49;0.10;1.00
9393;DHT22;4736;52.508;13.422;2022-12-19T09:57:56;0.10;1.00
9393;DHT22;4736;52.508;13.422;2022-12-19T10:01:15;0.10;1.00
9393;DHT22;4736;52.508;13.422;2022-12-19T10:04:21;0.40;1.00
9393;DHT22;4736;52.508;13.422;2022-12-19T10:07:27;0.40;1.00
9393;DHT22;4736;52.508;13.422;2022-12-19T10:10:59;0.30;1.00
9393;DHT22;4736;52.508;13.422;2022-12-19T10:14:35;0.20;1.00
9393;DHT22;4736;52.508;13.422;2022-12-19T10:18:03;0.60;1.00
9393;DHT22;4736;52.508;13.422;2022-12-19T10:21:20;0.60;1.00
9393;DHT22;4736;52.508;13.422;2022-12-19T10:24:53;0.90;1.00
9393;DHT22;4736;52.508;13.422;2022-12-19T10:28:18;0.80;1.00
9393;DHT22;4736;52.508;13.422;2022-12-19T10:31:31;0.80;1.00
9393;DHT22;4736;52.508;13.422;2022-12-19T10:34:40;1.10;1.00
9393;DHT22;4736;52.508;13.422;2022-12-19T10:37:49;1.20;1.00
9393;DHT22;4736;52.508;13.422;2022-12-19T10:40:59;1.10;1.00
9393;DHT22;4736;52.508;13.422;2022-12-19T10:44:07;1.40;1.00
9393;DHT22;4736;52.508;13.422;2022-12-19T10:47:14;1.10;1.00
9393;DHT22;4736;52.508;13.422;2022-12-19T10:50:22;1.60;1.00
9393;DHT22;4736;52.508;13.422;2022-12-19T10:53:27;1.60;1.00
9393;DHT22;4736;52.508;13.422;2022-12-19T10:56:31;1.50;1.00
9393;DHT22;4736;52.508;13.422;2022-12-19T10:59:38;1.50;1.00
9393;DHT22;4736;52.508;13.422;2022-12-19T11:02:43;1.90;1.00
9393;DHT22;4736;52.508;13.422;2022-12-19T11:05:50;1.60;1.00
9393;DHT22;4736;52.508;13.422;2022-12-19T11:09:18;1.70;1.00
9393;DHT22;4736;52.508;13.422;2022-12-19T11:12:24;2.00;1.00
9393;DHT22;4736;52.508;13.422;2022-12-19T11:15:48;1.80;1.00
9393;DHT22;4736;52.508;13.422;2022-12-19T11:19:19;1.70;1.00
9393;DHT22;4736;52.508;13.422;2022-12-19T11:22:51;1.90;1.00
9393;DHT22;4736;52.508;13.422;2022-12-19T11:26:27;1.70;1.00
9393;DHT22;4736;52.508;13.422;2022-12-19T11:29:50;1.90;1.00
9393;DHT22;4736;52.508;13.422;2022-12-19T11:33:15;1.70;1.00
9393;DHT22;4736;52.508;13.422;2022-12-19T11:36:28;1.60;1.00
9393;DHT22;4736;52.508;13.422;2022-12-19T11:39:38;1.50;1.00
9393;DHT22;4736;52.508;13.422;2022-12-19T11:42:49;1.50;1.00
9393;DHT22;4736;52.508;13.422;2022-12-19T11:46:22;1.80;1.00
9393;DHT22;4736;52.508;13.422;2022-12-19T11:49:30;1.70;1.00
9393;DHT22;4736;52.508;13.422;2022-12-19T11:52:40;1.80;1.00
9393;DHT22;4736;52.508;13.422;2022-12-19T11:56:08;1.80;1.00
9393;DHT22;4736;52.508;13.422;2022-12-19T11:59:18;1.70;1.00
9393;DHT22;4736;52.508;13.422;2022-12-19T12:02:45;1.70;1.00
9393;DHT22;4736;52.508;13.422;2022-12-19T12:05:52;1.50;1.00
9393;DHT22;4736;52.508;13.422;2022-12-19T12:09:00;1.60;1.00
9393;DHT22;4736;52.508;13.422;2022-12-19T12:12:28;1.70;1.00
9393;DHT22;4736;52.508;13.422;2022-12-19T12:15:57;1.70;1.00
9393;DHT22;4736;52.508;13.422;2022-12-19T12:19:31;1.70;1.00
9393;DHT22;4736;52.508;13.422;2022-12-19T12:23:07;1.60;1.00
9393;DHT22;4736;52.508;13.422;2022-12-19T12:26:44;1.60;1.00
9393;DHT22;4736;52.508;13.422;2022-12-19T12:30:13;1.60;1.00
9393;DHT22;4736;52.508;13.422;2022-12-19T12:33:52;1.80;1.00
9393;DHT22;4736;52.508;13.422;2022-12-19T12:37:27;1.70;1.00
9393;DHT22;4736;52.508;13.422;2022-12-19T12:41:01;1.80;1.00
9393;DHT22;4736;52.508;13.422;2022-12-19T12:44:08;1.60;1.00
9393;DHT22;4736;52.508;13.422;2022-12-19T12:47:16;1.60;1.00
9393;DHT22;4736;52.508;13.422;2022-12-19T12:50:22;1.70;1.00
9393;DHT22;4736;52.508;13.422;2022-12-19T12:53:30;1.80;1.00
9393;DHT22;4736;52.508;13.422;2022-12-19T12:56:35;1.70;1.00
9393;DHT22;4736;52.508;13.422;2022-12-19T12:59:44;1.90;1.00
9393;DHT22;4736;52.508;13.422;2022-12-19T13:02:53;1.70;1.00
9393;DHT22;4736;52.508;13.422;2022-12-19T13:06:03;1.60;1.00
9393;DHT22;4736;52.508;13.422;2022-12-19T13:09:20;1.90;1.00
9393;DHT22;4736;52.508;13.422;2022-12-19T13:12:25;1.70;1.00
9393;DHT22;4736;52.508;13.422;2022-12-19T13:15:46;2.00;1.00
9393;DHT22;4736;52.508;13.422;2022-12-19T13:19:01;2.00;1.00
9393;DHT22;4736;52.508;13.422;2022-12-19T13:22:15;2.00;1.00
9393;DHT22;4736;52.508;13.422;2022-12-19T13:25:46;2.10;1.00
9393;DHT22;4736;52.508;13.422;2022-12-19T13:28:49;2.10;1.00
9393;DHT22;4736;52.508;13.422;2022-12-19T13:32:10;1.80;1.00
9393;DHT22;4736;52.508;13.422;2022-12-19T13:35:32;2.00;1.00
9393;DHT22;4736;52.508;13.422;2022-12-19T13:38:58;1.90;1.00
9393;DHT22;4736;52.508;13.422;2022-12-19T13:42:23;2.10;1.00
9393;DHT22;4736;52.508;13.422;2022-12-19T13:45:49;2.20;1.00
9393;DHT22;4736;52.508;13.422;2022-12-19T13:48:56;1.90;1.00
9393;DHT22;4736;52.508;13.422;2022-12-19T13:52:06;2.00;1.00
9393;DHT22;4736;52.508;13.422;2022-12-19T13:55:13;1.80;1.00
9393;DHT22;4736;52.508;13.422;2022-12-19T13:58:22;2.10;1.00
9393;DHT22;4736;52.508;13.422;2022-12-19T14:01:32;1.90;1.00
9393;DHT22;4736;52.508;13.422;2022-12-19T14:04:39;2.10;1.00
9393;DHT22;4736;52.508;13.422;2022-12-19T14:07:45;2.00;1.00
9393;DHT22;4736;52.508;13.422;2022-12-19T14:10:49;2.00;1.00
9393;DHT22;4736;52.508;13.422;2022-12-19T14:14:15;2.10;1.00
9393;DHT22;4736;52.508;13.422;2022-12-19T14:17:35;2.10;1.00
9393;DHT22;4736;52.508;13.422;2022-12-19T14:20:38;2.10;1.00
9393;DHT22;4736;52.508;13.422;2022-12-19T14:24:10;2.20;1.00
9393;DHT22;4736;52.508;13.422;2022-12-19T14:27:15;2.00;1.00
9393;DHT22;4736;52.508;13.422;2022-12-19T14:30:40;2.00;1.00
9393;DHT22;4736;52.508;13.422;2022-12-19T14:33:47;2.20;1.00
9393;DHT22;4736;52.508;13.422;2022-12-19T14:37:26;2.40;1.00
9393;DHT22;4736;52.508;13.422;2022-12-19T14:40:51;2.20;1.00
9393;DHT22;4736;52.508;13.422;2022-12-19T14:44:10;2.30;1.00
9393;DHT22;4736;52.508;13.422;2022-12-19T14:47:35;2.50;1.00
9393;DHT22;4736;52.508;13.422;2022-12-19T14:51:04;2.40;1.00
9393;DHT22;4736;52.508;13.422;2022-12-19T14:54:27;2.20;1.00
9393;DHT22;4736;52.508;13.422;2022-12-19T14:57:51;2.30;1.00
9393;DHT22;4736;52.508;13.422;2022-12-19T15:01:20;2.50;1.00
9393;DHT22;4736;52.508;13.422;2022-12-19T15:04:28;2.50;1.00
9393;DHT22;4736;52.508;13.422;2022-12-19T15:07:54;2.70;1.00
9393;DHT22;4736;52.508;13.422;2022-12-19T15:11:00;2.40;1.00
9393;DHT22;4736;52.508;13.422;2022-12-19T15:14:47;2.40;1.00
9393;DHT22;4736;52.508;13.422;2022-12-19T15:18:12;2.40;1.00
9393;DHT22;4736;52.508;13.422;2022-12-19T15:21:18;2.50;1.00
9393;DHT22;4736;52.508;13.422;2022-12-19T15:24:21;2.50;1.00
9393;DHT22;4736;52.508;13.422;2022-12-19T15:27:24;2.60;1.00
9393;DHT22;4736;52.508;13.422;2022-12-19T15:30:30;2.50;1.00
9393;DHT22;4736;52.508;13.422;2022-12-19T15:33:35;2.70;1.00
9393;DHT22;4736;52.508;13.422;2022-12-19T15:36:57;2.60;1.00
9393;DHT22;4736;52.508;13.422;2022-12-19T15:40:01;2.50;1.00
9393;DHT22;4736;52.508;13.422;2022-12-19T15:43:04;2.60;1.00
9393;DHT22;4736;52.508;13.422;2022-12-19T15:46:10;2.60;1.00
9393;DHT22;4736;52.508;13.422;2022-12-19T15:49:14;2.80;1.00
9393;DHT22;4736;52.508;13.422;2022-12-19T15:52:19;2.60;1.00
9393;DHT22;4736;52.508;13.422;2022-12-19T15:55:25;2.80;1.00
9393;DHT22;4736;52.508;13.422;2022-12-19T15:58:29;2.80;1.00
9393;DHT22;4736;52.508;13.422;2022-12-19T16:01:33;2.90;1.00
9393;DHT22;4736;52.508;13.422;2022-12-19T16:04:36;2.90;1.00
9393;DHT22;4736;52.508;13.422;2022-12-19T16:07:39;2.80;1.00
9393;DHT22;4736;52.508;13.422;2022-12-19T16:10:43;2.90;1.00
9393;DHT22;4736;52.508;13.422;2022-12-19T16:13:50;2.80;1.00
9393;DHT22;4736;52.508;13.422;2022-12-19T16:16:55;2.80;1.00
9393;DHT22;4736;52.508;13.422;2022-12-19T16:19:58;2.90;1.00
9393;DHT22;4736;52.508;13.422;2022-12-19T16:23:01;3.10;1.00
9393;DHT22;4736;52.508;13.422;2022-12-19T16:26:07;3.10;1.00
9393;DHT22;4736;52.508;13.422;2022-12-19T16:29:19;3.00;1.00
9393;DHT22;4736;52.508;13.422;2022-12-19T16:32:23;2.90;1.00
9393;DHT22;4736;52.508;13.422;2022-12-19T16:35:27;3.10;1.00
9393;DHT22;4736;52.508;13.422;2022-12-19T16:38:51;3.30;1.00
9393;DHT22;4736;52.508;13.422;2022-12-19T16:41:53;3.20;1.00
9393;DHT22;4736;52.508;13.422;2022-12-19T16:44:57;3.00;1.00
9393;DHT22;4736;52.508;13.422;2022-12-19T16:48:01;3.20;1.00
9393;DHT22;4736;52.508;13.422;2022-12-19T16:51:04;3.20;1.00
9393;DHT22;4736;52.508;13.422;2022-12-19T16:54:08;3.10;1.00
9393;DHT22;4736;52.508;13.422;2022-12-19T16:57:18;3.10;1.00
9393;DHT22;4736;52.508;13.422;2022-12-19T17:00:22;3.20;1.00
9393;DHT22;4736;52.508;13.422;2022-12-19T17:03:30;3.20;1.00
9393;DHT22;4736;52.508;13.422;2022-12-19T17:06:34;3.20;1.00
9393;DHT22;4736;52.508;13.422;2022-12-19T17:09:37;3.30;1.00
9393;DHT22;4736;52.508;13.422;2022-12-19T17:12:40;3.40;1.00
9393;DHT22;4736;52.508;13.422;2022-12-19T17:15:44;3.60;1.00
9393;DHT22;4736;52.508;13.422;2022-12-19T17:18:58;3.30;1.00
9393;DHT22;4736;52.508;13.422;2022-12-19T17:22:01;3.30;1.00
9393;DHT22;4736;52.508;13.422;2022-12-19T17:25:17;3.60;1.00
9393;DHT22;4736;52.508;13.422;2022-12-19T17:28:21;3.40;1.00
9393;DHT22;4736;52.508;13.422;2022-12-19T17:31:26;3.70;1.00
9393;DHT22;4736;52.508;13.422;2022-12-19T17:34:32;3.40;1.00
9393;DHT22;4736;52.508;13.422;2022-12-19T17:37:35;3.60;1.00
9393;DHT22;4736;52.508;13.422;2022-12-19T17:40:38;3.50;1.00
9393;DHT22;4736;52.508;13.422;2022-12-19T17:43:41;3.80;1.00
9393;DHT22;4736;52.508;13.422;2022-12-19T17:46:45;3.60;1.00
9393;DHT22;4736;52.508;13.422;2022-12-19T17:49:50;3.50;1.00
9393;DHT22;4736;52.508;13.422;2022-12-19T17:52:54;3.50;1.00
9393;DHT22;4736;52.508;13.422;2022-12-19T17:55:57;3.60;1.00
9393;DHT22;4736;52.508;13.422;2022-12-19T17:59:00;3.60;1.00
9393;DHT22;4736;52.508;13.422;2022-12-19T18:02:08;3.60;1.00
9393;DHT22;4736;52.508;13.422;2022-12-19T18:05:17;3.80;1.00
9393;DHT22;4736;52.508;13.422;2022-12-19T18:08:25;3.60;1.00
9393;DHT22;4736;52.508;13.422;2022-12-19T18:11:29;3.70;1.00
9393;DHT22;4736;52.508;13.422;2022-12-19T18:14:40;3.80;1.00
9393;DHT22;4736;52.508;13.422;2022-12-19T18:17:44;3.80;1.00
9393;DHT22;4736;52.508;13.422;2022-12-19T18:20:49;3.60;1.00
9393;DHT22;4736;52.508;13.422;2022-12-19T18:23:52;3.90;1.00
9393;DHT22;4736;52.508;13.422;2022-12-19T18:26:55;3.80;1.00
9393;DHT22;4736;52.508;13.422;2022-12-19T18:29:58;3.80;1.00
9393;DHT22;4736;52.508;13.422;2022-12-19T18:33:02;3.80;1.00
9393;DHT22;4736;52.508;13.422;2022-12-19T18:36:15;3.90;1.00
9393;DHT22;4736;52.508;13.422;2022-12-19T18:39:20;4.00;1.00
9393;DHT22;4736;52.508;13.422;2022-12-19T18:42:24;3.90;1.00
9393;DHT22;4736;52.508;13.422;2022-12-19T18:45:32;4.00;1.00
9393;DHT22;4736;52.508;13.422;2022-12-19T18:48:36;4.20;1.00
9393;DHT22;4736;52.508;13.422;2022-12-19T18:51:41;3.90;1.00
9393;DHT22;4736;52.508;13.422;2022-12-19T18:54:45;4.00;1.00
9393;DHT22;4736;52.508;13.422;2022-12-19T18:57:49;4.20;1.00
9393;DHT22;4736;52.508;13.422;2022-12-19T19:00:52;4.00;1.00
9393;DHT22;4736;52.508;13.422;2022-12-19T19:04:00;4.10;1.00
9393;DHT22;4736;52.508;13.422;2022-12-19T19:07:04;4.40;1.00
9393;DHT22;4736;52.508;13.422;2022-12-19T19:10:21;4.30;1.00
9393;DHT22;4736;52.508;13.422;2022-12-19T19:13:25;4.10;1.00
9393;DHT22;4736;52.508;13.422;2022-12-19T19:16:29;4.50;1.00
9393;DHT22;4736;52.508;13.422;2022-12-19T19:19:32;4.20;1.00
9393;DHT22;4736;52.508;13.422;2022-12-19T19:22:36;4.10;1.00
9393;DHT22;4736;52.508;13.422;2022-12-19T19:25:39;4.00;1.00
9393;DHT22;4736;52.508;13.422;2022-12-19T19:28:43;4.00;1.00
9393;DHT22;4736;52.508;13.422;2022-12-19T19:31:53;4.10;1.00
9393;DHT22;4736;52.508;13.422;2022-12-19T19:34:56;4.50;1.00
9393;DHT22;4736;52.508;13.422;2022-12-19T19:38:04;4.20;1.00
9393;DHT22;4736;52.508;13.422;2022-12-19T19:41:08;4.40;1.00
9393;DHT22;4736;52.508;13.422;2022-12-19T19:44:11;4.50;1.00
9393;DHT22;4736;52.508;13.422;2022-12-19T19:47:14;4.10;1.00
9393;DHT22;4736;52.508;13.422;2022-12-19T19:50:17;4.40;1.00
9393;DHT22;4736;52.508;13.422;2022-12-19T19:53:21;4.50;1.00
9393;DHT22;4736;52.508;13.422;2022-12-19T19:56:24;4.30;1.00
9393;DHT22;4736;52.508;13.422;2022-12-19T19:59:28;4.30;1.00
9393;DHT22;4736;52.508;13.422;2022-12-19T20:02:31;4.30;1.00
9393;DHT22;4736;52.508;13.422;2022-12-19T20:05:35;4.10;1.00
9393;DHT22;4736;52.508;13.422;2022-12-19T20:08:39;4.60;1.00
9393;DHT22;4736;52.508;13.422;2022-12-19T20:11:42;4.10;1.00
9393;DHT22;4736;52.508;13.422;2022-12-19T20:14:46;4.50;1.00
9393;DHT22;4736;52.508;13.422;2022-12-19T20:17:49;4.50;1.00
9393;DHT22;4736;52.508;13.422;2022-12-19T20:20:53;4.30;1.00
9393;DHT22;4736;52.508;13.422;2022-12-19T20:23:58;4.10;1.00
9393;DHT22;4736;52.508;13.422;2022-12-19T20:27:01;4.40;1.00
9393;DHT22;4736;52.508;13.422;2022-12-19T20:30:05;4.50;1.00
9393;DHT22;4736;52.508;13.422;2022-12-19T20:33:08;4.10;1.00
9393;DHT22;4736;52.508;13.422;2022-12-19T20:36:12;4.30;1.00
9393;DHT22;4736;52.508;13.422;2022-12-19T20:39:16;4.20;1.00